sensor_id;sensor_type;location;lat;lon;timestamp;pressure;altitude;pressure_sealevel;temperature;humidity
11808;BME280;5961;42.640;23.380;2023-02-19T00:01:46;94323.44;;;10.26;54.22
11808;BME280;5961;42.640;23.380;2023-02-19T00:04:16;94298.16;;;10.20;54.21
11808;BME280;5961;42.640;23.380;2023-02-19T00:06:43;94305.22;;;10.16;54.68
11808;BME280;5961;42.640;23.380;2023-02-19T00:09:11;94286.66;;;10.08;54.21
11808;BME280;5961;42.640;23.380;2023-02-19T00:11:39;94293.19;;;10.10;54.98
11808;BME280;5961;42.640;23.380;2023-02-19T00:14:06;94297.13;;;10.04;55.38
11808;BME280;5961;42.640;23.380;2023-02-19T00:16:35;94302.00;;;10.02;55.47
11808;BME280;5961;42.640;23.380;2023-02-19T00:19:03;94302.84;;;9.94;55.41
11808;BME280;5961;42.640;23.380;2023-02-19T00:21:32;94293.94;;;9.90;55.75
11808;BME280;5961;42.640;23.380;2023-02-19T00:24:00;94289.47;;;9.82;56.22
11808;BME280;5961;42.640;23.380;2023-02-19T00:26:28;94280.91;;;9.76;56.48
11808;BME280;5961;42.640;23.380;2023-02-19T00:28:55;94296.31;;;9.83;56.22
11808;BME280;5961;42.640;23.380;2023-02-19T00:31:24;94268.88;;;9.79;56.44
11808;BME280;5961;42.640;23.380;2023-02-19T00:33:53;94286.09;;;9.73;56.61
11808;BME280;5961;42.640;23.380;2023-02-19T00:36:20;94282.16;;;9.79;56.49
11808;BME280;5961;42.640;23.380;2023-02-19T00:38:48;94269.44;;;9.64;56.98
11808;BME280;5961;42.640;23.380;2023-02-19T00:41:17;94260.72;;;9.55;57.13
11808;BME280;5961;42.640;23.380;2023-02-19T00:43:49;94276.88;;;9.70;56.95
11808;BME280;5961;42.640;23.380;2023-02-19T00:46:17;94270.19;;;9.64;56.88
11808;BME280;5961;42.640;23.380;2023-02-19T00:48:45;94273.34;;;9.58;57.41
11808;BME280;5961;42.640;23.380;2023-02-19T00:51:11;94265.22;;;9.63;57.41
11808;BME280;5961;42.640;23.380;2023-02-19T00:53:38;94257.88;;;9.60;57.38
11808;BME280;5961;42.640;23.380;2023-02-19T00:56:07;94259.44;;;9.61;57.33
11808;BME280;5961;42.640;23.380;2023-02-19T00:58:34;94259.91;;;9.63;57.20
11808;BME280;5961;42.640;23.380;2023-02-19T01:01:01;94246.09;;;9.49;57.45
11808;BME280;5961;42.640;23.380;2023-02-19T01:03:28;94241.91;;;9.39;58.03
11808;BME280;5961;42.640;23.380;2023-02-19T01:05:54;94252.72;;;9.25;58.61
11808;BME280;5961;42.640;23.380;2023-02-19T01:08:21;94236.59;;;9.01;58.89
11808;BME280;5961;42.640;23.380;2023-02-19T01:10:49;94273.53;;;9.06;59.69
11808;BME280;5961;42.640;23.380;2023-02-19T01:13:17;94266.97;;;9.12;59.17
11808;BME280;5961;42.640;23.380;2023-02-19T01:15:44;94255.63;;;9.03;59.84
11808;BME280;5961;42.640;23.380;2023-02-19T01:18:11;94255.63;;;9.03;59.71
11808;BME280;5961;42.640;23.380;2023-02-19T01:20:38;94240.19;;;8.97;59.87
11808;BME280;5961;42.640;23.380;2023-02-19T01:23:06;94242.66;;;9.02;59.93
11808;BME280;5961;42.640;23.380;2023-02-19T01:25:33;94216.22;;;8.85;59.63
11808;BME280;5961;42.640;23.380;2023-02-19T01:27:59;94238.16;;;9.02;59.30
11808;BME280;5961;42.640;23.380;2023-02-19T01:30:27;94264.19;;;9.09;59.52
11808;BME280;5961;42.640;23.380;2023-02-19T01:32:54;94255.47;;;9.00;59.46
11808;BME280;5961;42.640;23.380;2023-02-19T01:35:21;94275.72;;;9.04;59.55
11808;BME280;5961;42.640;23.380;2023-02-19T01:37:48;94274.63;;;9.05;59.43
11808;BME280;5961;42.640;23.380;2023-02-19T01:40:15;94275.56;;;9.09;59.09
11808;BME280;5961;42.640;23.380;2023-02-19T01:42:42;94250.19;;;8.91;58.80
11808;BME280;5961;42.640;23.380;2023-02-19T01:45:20;94279.81;;;8.93;59.68
11808;BME280;5961;42.640;23.380;2023-02-19T01:47:52;94282.00;;;8.91;59.88
11808;BME280;5961;42.640;23.380;2023-02-19T01:50:22;94306.00;;;8.86;59.91
11808;BME280;5961;42.640;23.380;2023-02-19T01:52:49;94316.59;;;8.86;60.42
11808;BME280;5961;42.640;23.380;2023-02-19T01:55:16;94306.16;;;8.81;60.29
11808;BME280;5961;42.640;23.380;2023-02-19T01:57:45;94307.09;;;8.85;60.08
11808;BME280;5961;42.640;23.380;2023-02-19T02:00:14;94251.34;;;8.39;60.44
11808;BME280;5961;42.640;23.380;2023-02-19T02:02:44;94314.44;;;8.71;60.41
11808;BME280;5961;42.640;23.380;2023-02-19T02:05:21;94289.19;;;8.65;60.58
11808;BME280;5961;42.640;23.380;2023-02-19T02:07:50;94286.25;;;8.58;61.05
11808;BME280;5961;42.640;23.380;2023-02-19T02:10:35;94302.78;;;8.55;61.27
11808;BME280;5961;42.640;23.380;2023-02-19T02:13:02;94263.97;;;8.33;61.13
11808;BME280;5961;42.640;23.380;2023-02-19T02:15:35;94284.69;;;8.40;61.33
11808;BME280;5961;42.640;23.380;2023-02-19T02:18:10;94301.50;;;8.44;61.59
11808;BME280;5961;42.640;23.380;2023-02-19T02:21:02;94285.31;;;8.45;61.63
11808;BME280;5961;42.640;23.380;2023-02-19T02:23:39;94288.44;;;8.30;62.05
11808;BME280;5961;42.640;23.380;2023-02-19T02:26:24;94303.50;;;8.21;62.52
11808;BME280;5961;42.640;23.380;2023-02-19T02:29:25;94296.47;;;8.16;62.80
11808;BME280;5961;42.640;23.380;2023-02-19T02:32:02;94291.78;;;8.13;63.08
11808;BME280;5961;42.640;23.380;2023-02-19T02:34:35;94292.91;;;8.12;63.20
11808;BME280;5961;42.640;23.380;2023-02-19T02:37:06;94288.84;;;8.15;63.34
11808;BME280;5961;42.640;23.380;2023-02-19T02:39:35;94313.59;;;8.10;63.19
11808;BME280;5961;42.640;23.380;2023-02-19T02:42:03;94300.22;;;8.15;63.36
11808;BME280;5961;42.640;23.380;2023-02-19T02:44:48;94238.84;;;7.79;63.28
11808;BME280;5961;42.640;23.380;2023-02-19T02:47:30;94301.00;;;8.16;63.25
11808;BME280;5961;42.640;23.380;2023-02-19T02:50:12;94299.91;;;8.17;63.26
11808;BME280;5961;42.640;23.380;2023-02-19T02:52:42;94279.81;;;8.16;63.33
11808;BME280;5961;42.640;23.380;2023-02-19T02:55:30;94276.88;;;8.17;63.49
11808;BME280;5961;42.640;23.380;2023-02-19T02:58:00;94274.69;;;8.19;63.02
11808;BME280;5961;42.640;23.380;2023-02-19T03:00:28;94276.25;;;8.20;63.10
11808;BME280;5961;42.640;23.380;2023-02-19T03:03:23;94280.91;;;8.23;62.98
11808;BME280;5961;42.640;23.380;2023-02-19T03:05:51;94281.28;;;8.31;63.08
11808;BME280;5961;42.640;23.380;2023-02-19T03:08:24;94266.28;;;8.17;63.03
11808;BME280;5961;42.640;23.380;2023-02-19T03:10:55;94287.03;;;8.41;62.67
11808;BME280;5961;42.640;23.380;2023-02-19T03:13:44;94289.84;;;8.45;62.48
11808;BME280;5961;42.640;23.380;2023-02-19T03:16:31;94302.13;;;8.49;62.38
11808;BME280;5961;42.640;23.380;2023-02-19T03:19:19;94312.75;;;8.58;62.21
11808;BME280;5961;42.640;23.380;2023-02-19T03:21:52;94277.50;;;8.40;61.99
11808;BME280;5961;42.640;23.380;2023-02-19T03:24:22;94313.19;;;8.60;61.84
11808;BME280;5961;42.640;23.380;2023-02-19T03:27:08;94318.34;;;8.65;61.65
11808;BME280;5961;42.640;23.380;2023-02-19T03:29:39;94341.09;;;8.66;61.58
11808;BME280;5961;42.640;23.380;2023-02-19T03:32:11;94306.81;;;8.44;62.52
11808;BME280;5961;42.640;23.380;2023-02-19T03:34:44;94323.81;;;8.51;62.55
11808;BME280;5961;42.640;23.380;2023-02-19T03:37:16;94336.88;;;8.39;63.11
11808;BME280;5961;42.640;23.380;2023-02-19T03:39:46;94333.13;;;8.40;62.90
11808;BME280;5961;42.640;23.380;2023-02-19T03:42:22;94348.25;;;8.40;63.20
11808;BME280;5961;42.640;23.380;2023-02-19T03:44:58;94329.03;;;8.17;63.47
11808;BME280;5961;42.640;23.380;2023-02-19T03:47:31;94342.00;;;8.36;63.51
11808;BME280;5961;42.640;23.380;2023-02-19T03:50:03;94349.78;;;8.41;63.15
11808;BME280;5961;42.640;23.380;2023-02-19T03:52:38;94350.59;;;8.41;63.26
11808;BME280;5961;42.640;23.380;2023-02-19T03:55:10;94350.75;;;8.45;63.14
11808;BME280;5961;42.640;23.380;2023-02-19T03:57:44;94348.72;;;8.42;63.43
11808;BME280;5961;42.640;23.380;2023-02-19T04:00:16;94354.63;;;8.39;63.56
11808;BME280;5961;42.640;23.380;2023-02-19T04:02:47;94348.56;;;8.47;62.99
11808;BME280;5961;42.640;23.380;2023-02-19T04:05:20;94357.63;;;8.54;62.86
11808;BME280;5961;42.640;23.380;2023-02-19T04:07:49;94369.13;;;8.50;62.99
11808;BME280;5961;42.640;23.380;2023-02-19T04:10:19;94357.91;;;8.36;63.31
11808;BME280;5961;42.640;23.380;2023-02-19T04:12:50;94356.50;;;8.38;63.26
11808;BME280;5961;42.640;23.380;2023-02-19T04:15:21;94363.53;;;8.43;62.54
11808;BME280;5961;42.640;23.380;2023-02-19T04:17:52;94376.16;;;8.46;62.67
11808;BME280;5961;42.640;23.380;2023-02-19T04:20:23;94366.63;;;8.27;63.48
11808;BME280;5961;42.640;23.380;2023-02-19T04:22:52;94366.31;;;8.38;63.21
11808;BME280;5961;42.640;23.380;2023-02-19T04:25:20;94370.81;;;8.37;62.74
11808;BME280;5961;42.640;23.380;2023-02-19T04:27:48;94381.44;;;8.46;62.70
11808;BME280;5961;42.640;23.380;2023-02-19T04:30:15;94372.56;;;8.42;61.97
11808;BME280;5961;42.640;23.380;2023-02-19T04:32:42;94382.38;;;8.50;62.05
11808;BME280;5961;42.640;23.380;2023-02-19T04:35:09;94379.59;;;8.55;61.98
11808;BME280;5961;42.640;23.380;2023-02-19T04:37:37;94377.88;;;8.59;61.91
11808;BME280;5961;42.640;23.380;2023-02-19T04:40:04;94380.69;;;8.71;61.33
11808;BME280;5961;42.640;23.380;2023-02-19T04:42:31;94378.81;;;8.71;61.14
11808;BME280;5961;42.640;23.380;2023-02-19T04:44:58;94377.72;;;8.81;61.21
11808;BME280;5961;42.640;23.380;2023-02-19T04:47:24;94374.00;;;8.82;61.31
11808;BME280;5961;42.640;23.380;2023-02-19T04:49:51;94369.31;;;8.88;61.19
11808;BME280;5961;42.640;23.380;2023-02-19T04:52:18;94379.44;;;8.94;60.82
11808;BME280;5961;42.640;23.380;2023-02-19T04:54:46;94374.91;;;8.95;61.04
11808;BME280;5961;42.640;23.380;2023-02-19T04:57:12;94352.78;;;8.82;60.95
11808;BME280;5961;42.640;23.380;2023-02-19T04:59:39;94294.50;;;8.39;60.89
11808;BME280;5961;42.640;23.380;2023-02-19T05:02:06;94385.53;;;9.03;60.73
11808;BME280;5961;42.640;23.380;2023-02-19T05:04:33;94386.91;;;9.09;60.46
11808;BME280;5961;42.640;23.380;2023-02-19T05:06:59;94375.38;;;9.05;60.55
11808;BME280;5961;42.640;23.380;2023-02-19T05:09:26;94385.81;;;9.10;60.42
11808;BME280;5961;42.640;23.380;2023-02-19T05:11:54;94392.22;;;9.18;60.53
11808;BME280;5961;42.640;23.380;2023-02-19T05:14:21;94393.44;;;9.20;60.06
11808;BME280;5961;42.640;23.380;2023-02-19T05:16:47;94377.09;;;9.18;59.45
11808;BME280;5961;42.640;23.380;2023-02-19T05:19:14;94392.19;;;9.26;59.16
11808;BME280;5961;42.640;23.380;2023-02-19T05:21:41;94397.66;;;9.30;59.11
11808;BME280;5961;42.640;23.380;2023-02-19T05:24:07;94395.78;;;9.30;58.90
11808;BME280;5961;42.640;23.380;2023-02-19T05:26:34;94397.94;;;9.37;58.65
11808;BME280;5961;42.640;23.380;2023-02-19T05:29:03;94353.22;;;9.10;58.22
11808;BME280;5961;42.640;23.380;2023-02-19T05:31:29;94398.56;;;9.43;58.04
11808;BME280;5961;42.640;23.380;2023-02-19T05:33:58;94406.66;;;9.46;58.19
11808;BME280;5961;42.640;23.380;2023-02-19T05:36:24;94411.47;;;9.53;58.62
11808;BME280;5961;42.640;23.380;2023-02-19T05:38:52;94419.75;;;9.60;58.30
11808;BME280;5961;42.640;23.380;2023-02-19T05:41:22;94419.28;;;9.66;58.27
11808;BME280;5961;42.640;23.380;2023-02-19T05:43:49;94416.91;;;9.65;57.90
11808;BME280;5961;42.640;23.380;2023-02-19T05:46:19;94414.22;;;9.73;57.97
11808;BME280;5961;42.640;23.380;2023-02-19T05:48:46;94416.88;;;9.82;57.87
11808;BME280;5961;42.640;23.380;2023-02-19T05:51:15;94414.97;;;9.82;57.74
11808;BME280;5961;42.640;23.380;2023-02-19T05:53:43;94422.47;;;9.89;57.62
11808;BME280;5961;42.640;23.380;2023-02-19T05:56:23;94424.78;;;9.99;57.10
11808;BME280;5961;42.640;23.380;2023-02-19T05:58:53;94419.13;;;10.01;57.11
11808;BME280;5961;42.640;23.380;2023-02-19T06:01:23;94420.66;;;10.10;56.95
11808;BME280;5961;42.640;23.380;2023-02-19T06:03:50;94423.19;;;10.15;56.77
11808;BME280;5961;42.640;23.380;2023-02-19T06:06:19;94426.31;;;10.17;56.44
11808;BME280;5961;42.640;23.380;2023-02-19T06:08:47;94431.13;;;10.24;56.78
11808;BME280;5961;42.640;23.380;2023-02-19T06:11:14;94441.88;;;10.27;56.47
11808;BME280;5961;42.640;23.380;2023-02-19T06:13:41;94442.78;;;10.31;56.23
11808;BME280;5961;42.640;23.380;2023-02-19T06:16:08;94450.56;;;10.36;56.20
11808;BME280;5961;42.640;23.380;2023-02-19T06:18:36;94448.38;;;10.38;56.45
11808;BME280;5961;42.640;23.380;2023-02-19T06:21:06;94441.88;;;10.27;56.15
11808;BME280;5961;42.640;23.380;2023-02-19T06:23:33;94420.84;;;10.14;56.54
11808;BME280;5961;42.640;23.380;2023-02-19T06:26:08;94434.06;;;10.22;56.35
11808;BME280;5961;42.640;23.380;2023-02-19T06:28:35;94445.09;;;10.41;56.46
11808;BME280;5961;42.640;23.380;2023-02-19T06:31:02;94449.94;;;10.39;56.55
11808;BME280;5961;42.640;23.380;2023-02-19T06:33:29;94399.16;;;10.03;56.90
11808;BME280;5961;42.640;23.380;2023-02-19T06:35:59;94445.53;;;10.43;57.56
11808;BME280;5961;42.640;23.380;2023-02-19T06:38:26;94458.53;;;10.45;57.90
11808;BME280;5961;42.640;23.380;2023-02-19T06:40:54;94451.00;;;10.47;57.32
11808;BME280;5961;42.640;23.380;2023-02-19T06:43:20;94442.69;;;10.48;56.80
11808;BME280;5961;42.640;23.380;2023-02-19T06:45:47;94399.41;;;10.19;57.28
11808;BME280;5961;42.640;23.380;2023-02-19T06:48:14;94440.69;;;10.45;57.30
11808;BME280;5961;42.640;23.380;2023-02-19T06:50:41;94448.28;;;10.56;56.97
11808;BME280;5961;42.640;23.380;2023-02-19T06:53:09;94457.34;;;10.55;57.39
11808;BME280;5961;42.640;23.380;2023-02-19T06:55:36;94455.97;;;10.57;56.92
11808;BME280;5961;42.640;23.380;2023-02-19T06:58:05;94458.63;;;10.57;57.08
11808;BME280;5961;42.640;23.380;2023-02-19T07:00:32;94441.59;;;10.50;57.24
11808;BME280;5961;42.640;23.380;2023-02-19T07:02:58;94437.66;;;10.56;56.88
11808;BME280;5961;42.640;23.380;2023-02-19T07:05:25;94453.09;;;10.62;57.27
11808;BME280;5961;42.640;23.380;2023-02-19T07:07:52;94455.56;;;10.67;56.87
11808;BME280;5961;42.640;23.380;2023-02-19T07:10:20;94445.84;;;10.71;56.58
11808;BME280;5961;42.640;23.380;2023-02-19T07:12:47;94465.19;;;10.80;56.59
11808;BME280;5961;42.640;23.380;2023-02-19T07:15:14;94437.44;;;10.69;56.41
11808;BME280;5961;42.640;23.380;2023-02-19T07:17:40;94462.81;;;10.87;56.39
11808;BME280;5961;42.640;23.380;2023-02-19T07:20:07;94450.91;;;10.85;55.92
11808;BME280;5961;42.640;23.380;2023-02-19T07:22:34;94456.84;;;10.90;55.90
11808;BME280;5961;42.640;23.380;2023-02-19T07:25:01;94452.28;;;10.91;55.95
11808;BME280;5961;42.640;23.380;2023-02-19T07:27:29;94446.53;;;10.89;55.63
11808;BME280;5961;42.640;23.380;2023-02-19T07:29:55;94443.84;;;10.89;55.66
11808;BME280;5961;42.640;23.380;2023-02-19T07:32:23;94442.13;;;10.93;55.61
11808;BME280;5961;42.640;23.380;2023-02-19T07:34:50;94447.56;;;10.96;55.45
11808;BME280;5961;42.640;23.380;2023-02-19T07:37:16;94437.69;;;10.97;55.69
11808;BME280;5961;42.640;23.380;2023-02-19T07:39:43;94438.31;;;11.02;55.20
11808;BME280;5961;42.640;23.380;2023-02-19T07:42:10;94438.09;;;11.08;55.21
11808;BME280;5961;42.640;23.380;2023-02-19T07:44:38;94431.06;;;11.03;55.07
11808;BME280;5961;42.640;23.380;2023-02-19T07:47:04;94427.59;;;11.11;55.51
11808;BME280;5961;42.640;23.380;2023-02-19T07:49:31;94443.28;;;11.25;55.39
11808;BME280;5961;42.640;23.380;2023-02-19T07:51:58;94437.16;;;11.24;55.03
11808;BME280;5961;42.640;23.380;2023-02-19T07:54:24;94444.31;;;11.32;55.07
11808;BME280;5961;42.640;23.380;2023-02-19T07:56:51;94429.00;;;11.29;54.81
11808;BME280;5961;42.640;23.380;2023-02-19T07:59:18;94433.03;;;11.35;54.57
11808;BME280;5961;42.640;23.380;2023-02-19T08:01:47;94438.56;;;11.42;54.46
11808;BME280;5961;42.640;23.380;2023-02-19T08:04:31;94429.50;;;11.43;54.28
11808;BME280;5961;42.640;23.380;2023-02-19T08:06:58;94432.97;;;11.56;54.39
11808;BME280;5961;42.640;23.380;2023-02-19T08:09:25;94434.56;;;11.57;53.76
11808;BME280;5961;42.640;23.380;2023-02-19T08:11:51;94431.66;;;11.62;53.87
11808;BME280;5961;42.640;23.380;2023-02-19T08:14:35;94431.13;;;11.69;53.47
11808;BME280;5961;42.640;23.380;2023-02-19T08:17:03;94418.75;;;11.73;53.24
11808;BME280;5961;42.640;23.380;2023-02-19T08:19:30;94420.09;;;11.79;53.25
11808;BME280;5961;42.640;23.380;2023-02-19T08:21:57;94424.09;;;11.85;53.14
11808;BME280;5961;42.640;23.380;2023-02-19T08:24:23;94427.09;;;11.83;52.69
11808;BME280;5961;42.640;23.380;2023-02-19T08:26:50;94421.22;;;11.90;52.90
11808;BME280;5961;42.640;23.380;2023-02-19T08:29:17;94410.34;;;11.95;52.90
11808;BME280;5961;42.640;23.380;2023-02-19T08:31:44;94380.59;;;11.81;52.42
11808;BME280;5961;42.640;23.380;2023-02-19T08:34:12;94411.41;;;12.15;52.53
11808;BME280;5961;42.640;23.380;2023-02-19T08:36:38;94429.69;;;12.16;52.05
11808;BME280;5961;42.640;23.380;2023-02-19T08:39:05;94409.03;;;12.01;51.76
11808;BME280;5961;42.640;23.380;2023-02-19T08:41:32;94427.72;;;12.25;52.07
11808;BME280;5961;42.640;23.380;2023-02-19T08:43:58;94425.16;;;12.29;52.12
11808;BME280;5961;42.640;23.380;2023-02-19T08:46:25;94418.81;;;12.33;51.81
11808;BME280;5961;42.640;23.380;2023-02-19T08:48:51;94422.94;;;12.31;51.69
11808;BME280;5961;42.640;23.380;2023-02-19T08:51:20;94425.03;;;12.37;51.87
11808;BME280;5961;42.640;23.380;2023-02-19T08:53:46;94411.84;;;12.41;51.35
11808;BME280;5961;42.640;23.380;2023-02-19T08:56:15;94416.16;;;12.45;51.38
11808;BME280;5961;42.640;23.380;2023-02-19T08:58:42;94411.06;;;12.40;51.29
11808;BME280;5961;42.640;23.380;2023-02-19T09:01:09;94417.28;;;12.56;51.63
11808;BME280;5961;42.640;23.380;2023-02-19T09:03:36;94410.50;;;12.59;51.73
11808;BME280;5961;42.640;23.380;2023-02-19T09:06:03;94405.28;;;12.62;51.22
11808;BME280;5961;42.640;23.380;2023-02-19T09:08:31;94400.13;;;12.70;51.31
11808;BME280;5961;42.640;23.380;2023-02-19T09:10:59;94401.91;;;12.78;51.37
11808;BME280;5961;42.640;23.380;2023-02-19T09:13:25;94394.78;;;12.82;51.49
11808;BME280;5961;42.640;23.380;2023-02-19T09:15:52;94389.91;;;12.84;51.50
11808;BME280;5961;42.640;23.380;2023-02-19T09:18:21;94390.09;;;12.91;51.74
11808;BME280;5961;42.640;23.380;2023-02-19T09:20:48;94389.63;;;13.01;52.21
11808;BME280;5961;42.640;23.380;2023-02-19T09:23:14;94387.19;;;13.08;52.38
11808;BME280;5961;42.640;23.380;2023-02-19T09:25:42;94381.63;;;13.13;52.04
11808;BME280;5961;42.640;23.380;2023-02-19T09:28:09;94382.50;;;13.17;51.92
11808;BME280;5961;42.640;23.380;2023-02-19T09:30:36;94373.47;;;13.22;51.14
11808;BME280;5961;42.640;23.380;2023-02-19T09:33:04;94352.00;;;13.18;51.27
11808;BME280;5961;42.640;23.380;2023-02-19T09:35:31;94385.88;;;13.30;50.90
11808;BME280;5961;42.640;23.380;2023-02-19T09:37:58;94372.41;;;13.38;50.54
11808;BME280;5961;42.640;23.380;2023-02-19T09:40:24;94388.59;;;13.45;50.29
11808;BME280;5961;42.640;23.380;2023-02-19T09:42:52;94351.94;;;13.30;49.97
11808;BME280;5961;42.640;23.380;2023-02-19T09:45:22;94376.13;;;13.49;49.96
11808;BME280;5961;42.640;23.380;2023-02-19T09:47:52;94339.38;;;13.31;50.24
11808;BME280;5961;42.640;23.380;2023-02-19T09:50:22;94345.88;;;13.45;49.94
11808;BME280;5961;42.640;23.380;2023-02-19T09:52:53;94395.84;;;13.60;49.97
11808;BME280;5961;42.640;23.380;2023-02-19T09:55:27;94363.13;;;13.63;49.07
11808;BME280;5961;42.640;23.380;2023-02-19T09:57:58;94358.75;;;13.71;49.17
11808;BME280;5961;42.640;23.380;2023-02-19T10:00:28;94356.50;;;13.73;49.15
11808;BME280;5961;42.640;23.380;2023-02-19T10:03:01;94342.97;;;13.82;49.74
11808;BME280;5961;42.640;23.380;2023-02-19T10:05:29;94340.13;;;13.90;48.97
11808;BME280;5961;42.640;23.380;2023-02-19T10:07:57;94346.03;;;13.96;48.31
11808;BME280;5961;42.640;23.380;2023-02-19T10:10:29;94339.44;;;13.93;48.08
11808;BME280;5961;42.640;23.380;2023-02-19T10:13:10;94325.25;;;14.05;48.00
11808;BME280;5961;42.640;23.380;2023-02-19T10:15:44;94318.50;;;14.11;47.91
11808;BME280;5961;42.640;23.380;2023-02-19T10:18:15;94308.25;;;14.13;47.06
11808;BME280;5961;42.640;23.380;2023-02-19T10:20:42;94304.88;;;14.16;47.17
11808;BME280;5961;42.640;23.380;2023-02-19T10:23:10;94303.47;;;14.22;46.94
11808;BME280;5961;42.640;23.380;2023-02-19T10:25:42;94310.44;;;14.26;46.60
11808;BME280;5961;42.640;23.380;2023-02-19T10:28:14;94296.81;;;14.32;46.79
11808;BME280;5961;42.640;23.380;2023-02-19T10:30:41;94296.25;;;14.38;46.30
11808;BME280;5961;42.640;23.380;2023-02-19T10:33:10;94294.75;;;14.41;46.01
11808;BME280;5961;42.640;23.380;2023-02-19T10:35:51;94267.09;;;14.33;46.02
11808;BME280;5961;42.640;23.380;2023-02-19T10:38:19;94271.03;;;14.39;45.94
11808;BME280;5961;42.640;23.380;2023-02-19T10:40:49;94266.72;;;14.50;45.70
11808;BME280;5961;42.640;23.380;2023-02-19T10:43:23;94263.25;;;14.50;45.58
11808;BME280;5961;42.640;23.380;2023-02-19T10:45:57;94249.09;;;14.49;45.74
11808;BME280;5961;42.640;23.380;2023-02-19T10:48:28;94230.31;;;14.46;45.18
11808;BME280;5961;42.640;23.380;2023-02-19T10:50:59;94254.03;;;14.66;45.57
11808;BME280;5961;42.640;23.380;2023-02-19T10:53:40;94239.53;;;14.67;45.16
11808;BME280;5961;42.640;23.380;2023-02-19T10:56:09;94245.78;;;14.75;44.87
11808;BME280;5961;42.640;23.380;2023-02-19T10:58:39;94238.69;;;14.82;44.62
11808;BME280;5961;42.640;23.380;2023-02-19T11:01:11;94243.03;;;14.91;44.68
11808;BME280;5961;42.640;23.380;2023-02-19T11:03:38;94240.09;;;14.96;44.25
11808;BME280;5961;42.640;23.380;2023-02-19T11:06:06;94236.41;;;15.04;44.40
11808;BME280;5961;42.640;23.380;2023-02-19T11:08:45;94230.75;;;15.09;43.39
11808;BME280;5961;42.640;23.380;2023-02-19T11:11:22;94223.56;;;15.13;43.52
11808;BME280;5961;42.640;23.380;2023-02-19T11:13:50;94219.94;;;15.24;43.18
11808;BME280;5961;42.640;23.380;2023-02-19T11:16:18;94221.28;;;15.34;43.00
11808;BME280;5961;42.640;23.380;2023-02-19T11:18:52;94218.72;;;15.41;42.69
11808;BME280;5961;42.640;23.380;2023-02-19T11:21:25;94202.78;;;15.48;42.60
11808;BME280;5961;42.640;23.380;2023-02-19T11:23:57;94204.91;;;15.62;42.55
11808;BME280;5961;42.640;23.380;2023-02-19T11:26:26;94209.31;;;15.73;42.13
11808;BME280;5961;42.640;23.380;2023-02-19T11:28:59;94194.56;;;15.86;41.77
11808;BME280;5961;42.640;23.380;2023-02-19T11:31:27;94189.88;;;16.06;41.40
11808;BME280;5961;42.640;23.380;2023-02-19T11:33:57;94194.28;;;16.21;41.21
11808;BME280;5961;42.640;23.380;2023-02-19T11:36:30;94181.47;;;16.37;40.85
11808;BME280;5961;42.640;23.380;2023-02-19T11:39:00;94151.59;;;16.39;39.95
11808;BME280;5961;42.640;23.380;2023-02-19T11:41:52;94169.28;;;16.73;39.53
11808;BME280;5961;42.640;23.380;2023-02-19T11:44:31;94166.38;;;16.89;38.88
11808;BME280;5961;42.640;23.380;2023-02-19T11:47:29;94165.81;;;17.10;38.92
11808;BME280;5961;42.640;23.380;2023-02-19T11:50:10;94159.41;;;17.21;38.72
11808;BME280;5961;42.640;23.380;2023-02-19T11:52:42;94158.41;;;17.40;38.05
11808;BME280;5961;42.640;23.380;2023-02-19T11:55:16;94155.50;;;17.56;37.71
11808;BME280;5961;42.640;23.380;2023-02-19T11:57:46;94142.94;;;17.70;37.37
11808;BME280;5961;42.640;23.380;2023-02-19T12:00:22;94152.63;;;17.85;36.90
11808;BME280;5961;42.640;23.380;2023-02-19T12:03:16;94141.94;;;17.99;36.23
11808;BME280;5961;42.640;23.380;2023-02-19T12:06:03;94130.88;;;18.12;36.58
11808;BME280;5961;42.640;23.380;2023-02-19T12:08:45;94133.28;;;18.31;35.65
11808;BME280;5961;42.640;23.380;2023-02-19T12:11:32;94123.72;;;18.44;35.11
11808;BME280;5961;42.640;23.380;2023-02-19T12:14:15;94119.94;;;18.52;35.18
11808;BME280;5961;42.640;23.380;2023-02-19T12:16:53;94126.13;;;18.63;34.81
11808;BME280;5961;42.640;23.380;2023-02-19T12:19:55;94105.00;;;18.72;34.62
11808;BME280;5961;42.640;23.380;2023-02-19T12:22:28;94101.97;;;18.91;34.68
11808;BME280;5961;42.640;23.380;2023-02-19T12:25:16;94104.28;;;19.03;34.19
11808;BME280;5961;42.640;23.380;2023-02-19T12:28:01;94098.53;;;19.15;34.08
11808;BME280;5961;42.640;23.380;2023-02-19T12:30:56;94103.91;;;19.30;33.68
11808;BME280;5961;42.640;23.380;2023-02-19T12:33:48;94086.22;;;19.43;34.09
11808;BME280;5961;42.640;23.380;2023-02-19T12:36:26;94080.81;;;19.57;34.08
11808;BME280;5961;42.640;23.380;2023-02-19T12:39:02;94075.78;;;19.73;32.91
11808;BME280;5961;42.640;23.380;2023-02-19T12:41:40;94070.72;;;19.86;32.52
11808;BME280;5961;42.640;23.380;2023-02-19T12:44:10;94072.22;;;20.04;32.30
11808;BME280;5961;42.640;23.380;2023-02-19T12:46:41;94019.09;;;19.91;31.71
11808;BME280;5961;42.640;23.380;2023-02-19T12:49:13;94064.41;;;20.42;31.01
11808;BME280;5961;42.640;23.380;2023-02-19T12:51:44;94055.81;;;20.61;30.82
11808;BME280;5961;42.640;23.380;2023-02-19T12:54:16;94030.25;;;20.76;30.68
11808;BME280;5961;42.640;23.380;2023-02-19T12:56:50;94047.03;;;21.08;29.39
11808;BME280;5961;42.640;23.380;2023-02-19T12:59:22;94032.97;;;21.27;29.38
11808;BME280;5961;42.640;23.380;2023-02-19T13:01:54;94035.91;;;21.44;29.10
11808;BME280;5961;42.640;23.380;2023-02-19T13:04:31;94008.06;;;21.50;28.84
11808;BME280;5961;42.640;23.380;2023-02-19T13:07:04;94026.25;;;21.83;28.41
11808;BME280;5961;42.640;23.380;2023-02-19T13:09:34;94023.28;;;22.08;27.77
11808;BME280;5961;42.640;23.380;2023-02-19T13:12:05;94024.16;;;22.32;27.70
11808;BME280;5961;42.640;23.380;2023-02-19T13:14:36;94022.34;;;22.52;26.90
11808;BME280;5961;42.640;23.380;2023-02-19T13:17:09;94014.75;;;22.70;26.36
11808;BME280;5961;42.640;23.380;2023-02-19T13:19:46;94006.25;;;22.95;26.47
11808;BME280;5961;42.640;23.380;2023-02-19T13:22:19;94010.88;;;23.21;26.45
11808;BME280;5961;42.640;23.380;2023-02-19T13:25:08;94002.69;;;23.48;25.36